Terminal Aerodrome Forecast
Issued by NWS Quad Cities IA IL

Home | Current Version | Previous Version | Text Only | Print | Product List | Glossary On
Versions: 1 2 3 4 5 6 7 8 9 10 11 12 13 14 15 16 17 18 19 20 21 22 23 24 25 26 27 28 29 30 31 32 33 34 35 36
000
FTUS43 KDVN 190522
TAFDBQ
TAF
KDBQ 190522Z 1906/2006 20010KT 3SM BR SKC
      TEMPO 1906/1909 3/4SM BR BKN002
     FM190900 17007KT 1/2SM FZFG VV001
     FM191500 16007KT 2SM BR OVC002
     FM192100 10005KT 3/4SM -RADZ OVC004=

USA.gov is the U.S. government's official web portal to all federal, state and local government web resources and services.